Time;durP1;ratioP1;P1;durP2;ratioP2;P2;SDS_P1;SDS_P2;PMS_P1;PMS_P2;Temp;Humidity;BMP_temperature;BMP_pressure;BME280_temperature;BME280_humidity;BME280_pressure;Samples;Min_cycle;Max_cycle;Signal;HPM_P1;HPM_P2
2024/04/12 00:02:05;;;;;;;7.57;4.07;;;;;;;14.31;52.57;101747.38;11398536;25;20021;-61
2024/04/12 00:07:13;;;;;;;5.25;3.25;;;;;;;14.33;52.52;101767.72;11415008;25;20005;-60
2024/04/12 00:12:25;;;;;;;4.00;2.92;;;;;;;14.29;52.97;101760.03;11428218;25;20013;-61
2024/04/12 00:17:31;;;;;;;4.15;3.05;;;;;;;14.20;52.89;101758.88;11411434;25;20640;-61
2024/04/12 00:22:38;;;;;;;4.43;2.97;;;;;;;14.14;52.92;101754.81;11382659;25;20849;-61
2024/04/12 00:27:40;;;;;;;5.72;2.92;;;;;;;14.11;53.15;101756.84;11430830;25;20000;-61
2024/04/12 00:32:44;;;;;;;5.72;3.08;;;;;;;14.02;52.82;101758.38;11387713;25;20816;-62
2024/04/12 00:37:52;;;;;;;5.68;3.20;;;;;;;13.94;53.35;101753.53;11412832;25;20573;-61
2024/04/12 00:42:57;;;;;;;6.95;3.45;;;;;;;13.91;52.88;101755.59;11424607;25;20333;-61
2024/04/12 00:47:59;;;;;;;4.22;3.53;;;;;;;13.75;53.55;101737.94;11432365;25;20004;-62
2024/04/12 00:53:03;;;;;;;3.92;3.20;;;;;;;13.86;53.47;101758.59;11436699;25;23818;-66
2024/04/12 00:58:09;;;;;;;4.97;3.25;;;;;;;13.77;53.56;101749.41;11435025;25;20009;-67
2024/04/12 01:03:14;;;;;;;6.65;3.65;;;;;;;13.76;53.69;101753.03;11434441;25;20017;-65
2024/04/12 01:08:16;;;;;;;4.35;3.42;;;;;;;13.70;53.60;101734.72;11367894;25;20340;-67
2024/04/12 01:13:18;;;;;;;5.05;3.60;;;;;;;13.72;53.75;101745.31;11430632;25;20032;-67
2024/04/12 01:18:20;;;;;;;9.43;3.83;;;;;;;13.72;54.24;101750.66;11434525;25;20032;-67
2024/04/12 01:23:22;;;;;;;6.53;3.53;;;;;;;13.65;54.42;101741.38;11431255;25;20040;-67
2024/04/12 01:28:24;;;;;;;6.80;3.63;;;;;;;13.57;54.77;101741.91;11435754;25;20698;-68
2024/04/12 01:33:26;;;;;;;6.30;3.38;;;;;;;13.52;54.93;101744.03;11430539;25;20017;-66
2024/04/12 01:38:31;;;;;;;5.05;4.15;;;;;;;13.46;55.20;101737.28;11405229;25;20001;-66
2024/04/12 01:43:38;;;;;;;5.20;3.47;;;;;;;13.40;54.88;101732.38;11426838;25;20081;-66
2024/04/12 01:48:40;;;;;;;7.53;3.70;;;;;;;13.43;55.41;101735.69;11435770;25;20739;-66
2024/04/12 01:53:43;;;;;;;5.80;3.47;;;;;;;13.37;55.54;101724.56;11434595;25;20569;-66
2024/04/12 01:58:45;;;;;;;5.65;3.60;;;;;;;13.41;55.22;101736.78;11420368;25;20756;-68
2024/04/12 02:03:47;;;;;;;7.13;3.50;;;;;;;13.32;55.68;101738.22;11433219;25;20406;-68
2024/04/12 02:08:49;;;;;;;6.43;3.88;;;;;;;13.28;55.50;101726.00;11351540;25;20009;-67
2024/04/12 02:13:52;;;;;;;6.60;4.13;;;;;;;13.29;56.15;101743.78;11435552;25;20021;-67
2024/04/12 02:18:55;;;;;;;6.38;3.63;;;;;;;13.27;56.07;101743.03;11409235;25;20060;-67
2024/04/12 02:24:01;;;;;;;7.22;3.92;;;;;;;12.97;56.26;101712.06;11408553;25;20072;-68
2024/04/12 02:29:05;;;;;;;7.22;4.40;;;;;;;13.16;56.44;101759.78;11414614;25;20018;-68
2024/04/12 02:34:09;;;;;;;5.60;3.88;;;;;;;13.14;56.49;101752.84;11434890;25;20088;-67
2024/04/12 02:39:12;;;;;;;5.57;3.28;;;;;;;13.12;56.38;101762.78;11468334;25;20167;-67
2024/04/12 02:44:14;;;;;;;4.70;3.60;;;;;;;13.09;56.77;101754.00;11431593;25;20007;-67
2024/04/12 02:49:16;;;;;;;6.18;4.10;;;;;;;12.98;56.81;101745.84;11405248;25;20676;-67
2024/04/12 02:54:19;;;;;;;6.20;3.85;;;;;;;12.76;57.11;101708.16;11436921;25;20092;-67
2024/04/12 02:59:27;;;;;;;6.97;3.92;;;;;;;12.94;56.91;101744.34;11348088;25;20016;-66
2024/04/12 03:04:30;;;;;;;4.60;3.90;;;;;;;12.80;57.40;101736.38;11432262;25;20001;-67
2024/04/12 03:09:33;;;;;;;5.55;4.03;;;;;;;12.68;57.81;101733.56;11386383;25;20005;-67
2024/04/12 03:14:34;;;;;;;8.00;4.28;;;;;;;12.69;58.03;101739.78;11424095;25;20000;-66
2024/04/12 03:19:36;;;;;;;4.40;3.58;;;;;;;12.64;57.50;101732.06;11392316;25;20016;-67
2024/04/12 03:24:37;;;;;;;10.18;4.68;;;;;;;12.61;58.19;101737.63;11398011;25;20006;-66
2024/04/12 03:29:39;;;;;;;6.82;4.15;;;;;;;12.52;58.60;101727.50;11426045;25;20001;-67
2024/04/12 03:34:41;;;;;;;5.15;3.67;;;;;;;12.55;58.45;101740.69;11378779;25;20458;-68
2024/04/12 03:39:46;;;;;;;7.22;3.95;;;;;;;12.61;58.45;101724.25;11395973;25;20001;-68
2024/04/12 03:44:48;;;;;;;5.38;3.70;;;;;;;12.60;58.46;101730.53;11386145;25;19996;-67
2024/04/12 03:49:52;;;;;;;5.13;3.80;;;;;;;12.61;58.52;101734.94;11429336;25;20462;-67
2024/04/12 03:55:08;;;;;;;7.43;4.15;;;;;;;12.44;58.50;101700.47;11428484;25;20083;-67
2024/04/12 04:00:11;;;;;;;4.70;3.83;;;;;;;12.58;58.49;101736.94;11423179;25;20077;-67
2024/04/12 04:05:16;;;;;;;5.10;4.20;;;;;;;12.53;58.85;101735.41;11397484;25;20319;-68
2024/04/12 04:10:21;;;;;;;4.78;3.45;;;;;;;12.53;58.62;101723.88;11391056;25;20008;-67
2024/04/12 04:15:25;;;;;;;6.85;4.45;;;;;;;12.47;59.59;101718.94;11426370;25;20139;-66
2024/04/12 04:20:27;;;;;;;6.55;3.97;;;;;;;12.44;59.51;101727.16;11380796;25;20048;-68
2024/04/12 04:25:31;;;;;;;4.88;4.03;;;;;;;12.46;59.66;101735.91;11395897;25;20027;-67
2024/04/12 04:30:35;;;;;;;6.45;4.53;;;;;;;12.34;60.11;101730.44;11409626;25;20006;-67
2024/04/12 04:35:38;;;;;;;7.05;4.47;;;;;;;12.25;60.11;101727.47;11418146;25;20016;-65
2024/04/12 04:40:40;;;;;;;4.47;3.65;;;;;;;12.26;60.33;101724.72;11412652;25;20039;-67
2024/04/12 04:45:48;;;;;;;4.25;3.38;;;;;;;12.18;60.70;101708.34;11434379;25;20525;-68
2024/04/12 04:50:51;;;;;;;7.18;3.92;;;;;;;12.21;61.01;101726.84;11441777;25;20005;-67
2024/04/12 04:55:53;;;;;;;5.28;3.75;;;;;;;12.17;61.19;101720.84;11375895;25;20004;-67
2024/04/12 05:00:58;;;;;;;6.53;4.57;;;;;;;12.09;61.61;101728.47;11376742;25;20004;-67
2024/04/12 05:06:05;;;;;;;8.93;4.82;;;;;;;12.11;61.74;101723.03;11411970;25;20004;-68
2024/04/12 05:11:07;;;;;;;4.72;3.65;;;;;;;12.17;61.69;101741.31;11449280;25;20112;-67
2024/04/12 05:16:15;;;;;;;8.93;4.40;;;;;;;12.18;61.48;101740.38;11409153;25;20084;-67
2024/04/12 05:21:17;;;;;;;5.90;4.25;;;;;;;12.13;61.43;101750.47;11432109;25;20005;-68
2024/04/12 05:26:20;;;;;;;5.75;4.60;;;;;;;12.17;61.83;101760.00;11413726;25;20004;-66
2024/04/12 05:31:29;;;;;;;7.30;4.53;;;;;;;12.07;61.75;101745.53;11430972;25;20123;-67
2024/04/12 05:36:36;;;;;;;6.50;4.40;;;;;;;12.12;61.95;101765.66;11372747;25;20085;-69
2024/04/12 05:41:44;;;;;;;10.15;5.30;;;;;;;12.20;61.54;101767.81;11405853;25;20829;-68
2024/04/12 05:46:46;;;;;;;8.88;4.95;;;;;;;12.25;61.95;101772.88;11413367;25;20464;-68
2024/04/12 05:51:51;;;;;;;6.97;4.28;;;;;;;12.15;61.59;101761.94;11435855;25;20013;-68
2024/04/12 05:56:52;;;;;;;9.10;4.65;;;;;;;12.22;62.34;101762.38;11411006;25;20004;-69
2024/04/12 06:01:54;;;;;;;8.55;5.30;;;;;;;12.19;62.86;101763.47;11438095;25;20308;-68
2024/04/12 06:06:59;;;;;;;5.15;4.45;;;;;;;12.30;62.59;101781.47;11414625;25;20005;-69
2024/04/12 06:12:05;;;;;;;6.35;4.53;;;;;;;12.47;62.77;101780.38;11387377;25;19997;-68
2024/04/12 06:17:11;;;;;;;8.43;4.80;;;;;;;12.63;62.51;101775.75;11434993;25;20015;-66
2024/04/12 06:22:13;;;;;;;7.55;4.95;;;;;;;12.75;62.28;101787.47;11441095;25;20047;-68
2024/04/12 06:27:16;;;;;;;7.40;5.28;;;;;;;12.86;61.08;101778.75;11439280;25;20001;-67
2024/04/12 06:32:18;;;;;;;11.23;5.25;;;;;;;13.02;61.13;101767.91;11427976;25;20013;-69
2024/04/12 06:37:23;;;;;;;8.88;4.57;;;;;;;13.20;61.28;101771.16;11437776;25;20106;-68
2024/04/12 06:42:27;;;;;;;10.25;4.75;;;;;;;13.18;60.41;101736.50;11438425;25;20016;-67
2024/04/12 06:47:30;;;;;;;8.40;5.30;;;;;;;13.67;59.76;101780.44;11384179;25;20025;-67
2024/04/12 06:52:34;;;;;;;8.77;3.80;;;;;;;13.77;59.46;101789.53;11433614;25;20049;-68
2024/04/12 06:57:36;;;;;;;7.80;4.57;;;;;;;13.88;59.14;101777.22;11418458;25;20057;-68
2024/04/12 07:02:37;;;;;;;6.32;3.95;;;;;;;14.18;58.48;101784.06;11384950;25;20012;-69
2024/04/12 07:07:40;;;;;;;7.28;3.88;;;;;;;14.36;58.12;101788.06;11432456;25;20012;-68
2024/04/12 07:12:43;;;;;;;6.50;3.55;;;;;;;14.52;57.71;101792.31;11434432;25;20643;-68
2024/04/12 07:17:47;;;;;;;6.53;4.40;;;;;;;14.69;56.20;101778.56;11430247;25;20128;-69
2024/04/12 07:22:51;;;;;;;8.95;4.78;;;;;;;14.79;55.11;101774.25;11427555;25;19997;-69
2024/04/12 07:27:53;;;;;;;6.72;5.10;;;;;;;14.83;54.12;101766.81;11406671;25;20001;-67
2024/04/12 07:32:55;;;;;;;8.25;5.00;;;;;;;14.91;53.66;101772.50;11432917;25;22266;-67
2024/04/12 07:37:59;;;;;;;6.53;4.25;;;;;;;15.11;53.56;101770.97;11403331;25;20020;-67
2024/04/12 07:43:08;;;;;;;6.18;3.58;;;;;;;15.33;53.11;101772.88;11415346;25;20040;-68
2024/04/12 07:48:36;;;;;;;7.30;3.78;;;;;;;15.42;52.67;101760.59;11364009;25;20016;-70
2024/04/12 07:53:41;;;;;;;5.00;2.83;;;;;;;15.62;52.08;101766.25;11433716;25;20773;-68
2024/04/12 07:59:01;;;;;;;5.78;2.60;;;;;;;15.78;51.98;101755.16;11400352;25;20037;-69
2024/04/12 08:04:06;;;;;;;3.53;2.20;;;;;;;15.88;52.15;101748.97;11431350;25;20640;-68
2024/04/12 08:09:21;;;;;;;4.10;2.40;;;;;;;16.17;52.63;101756.53;11418973;25;20004;-68
2024/04/12 08:14:23;;;;;;;8.63;2.67;;;;;;;16.57;52.76;101753.28;11402742;25;20009;-68
2024/04/12 08:19:38;;;;;;;4.95;2.63;;;;;;;16.60;51.07;101747.66;11424307;25;20346;-68
2024/04/12 08:24:41;;;;;;;4.47;2.10;;;;;;;16.68;52.01;101757.78;11405818;25;20000;-67
2024/04/12 08:29:43;;;;;;;5.45;2.38;;;;;;;16.88;51.21;101761.53;11400802;25;20063;-68
2024/04/12 08:34:45;;;;;;;6.55;2.60;;;;;;;17.07;51.52;101770.72;11420663;25;20237;-68
2024/04/12 08:39:53;;;;;;;4.13;2.03;;;;;;;17.22;51.04;101766.75;11345526;25;20016;-66
2024/04/12 08:45:12;;;;;;;6.50;2.55;;;;;;;17.52;50.56;101775.03;11427926;25;21007;-66
2024/04/12 08:50:16;;;;;;;6.68;2.40;;;;;;;17.84;50.68;101780.31;11367778;25;20075;-66
2024/04/12 08:55:21;;;;;;;5.60;2.20;;;;;;;18.09;50.64;101770.09;11388829;25;20005;-68
2024/04/12 09:00:28;;;;;;;3.78;2.50;;;;;;;18.27;49.70;101771.19;11423657;25;20012;-67
2024/04/12 09:05:35;;;;;;;5.00;2.03;;;;;;;18.57;49.58;101771.25;11432493;25;19998;-68
2024/04/12 09:10:37;;;;;;;6.03;2.70;;;;;;;18.55;50.02;101758.78;11428593;25;20068;-66
2024/04/12 09:15:42;;;;;;;6.22;2.13;;;;;;;18.94;49.40;101752.56;11410255;25;20009;-67
2024/04/12 09:20:52;;;;;;;4.65;2.10;;;;;;;19.29;48.32;101751.16;11408924;25;20076;-67
2024/04/12 09:25:55;;;;;;;7.00;1.85;;;;;;;19.61;48.24;101752.63;11420535;25;20000;-67
2024/04/12 09:36:38;;;;;;;3.35;1.20;;;;;;;20.14;48.01;101741.19;11406948;25;20001;-68
2024/04/12 09:41:56;;;;;;;4.63;1.05;;;;;;;20.38;47.94;101744.34;11416148;25;20024;-66
2024/04/12 10:40:40;;;;;;;3.22;1.00;;;;;;;23.44;41.96;101702.31;11388331;25;19941;-67
2024/04/12 10:45:48;;;;;;;;;;;;;;;23.53;42.62;101712.13;11381281;25;20111;-66
2024/04/12 10:50:54;;;;;;;3.35;1.40;;;;;;;23.58;42.42;101709.75;11409882;25;19987;-68
2024/04/12 10:55:55;;;;;;;3.15;0.90;;;;;;;23.38;43.37;101716.59;11428062;25;20025;-69
2024/04/12 11:01:05;;;;;;;2.13;1.40;;;;;;;23.01;43.80;101699.78;11396508;25;20223;-68
2024/04/12 11:06:18;;;;;;;3.10;0.93;;;;;;;22.89;44.91;101690.28;11437057;25;19996;-69
2024/04/12 11:11:26;;;;;;;;;;;;;;;23.00;44.94;101702.66;11441500;25;20059;-66
2024/04/12 11:32:33;;;;;;;1.55;0.40;;;;;;;21.71;47.96;101711.00;11420574;25;20101;-67
2024/04/12 11:37:40;;;;;;;2.30;0.35;;;;;;;21.26;49.48;101708.47;11330979;25;20015;-67
2024/04/12 11:42:46;;;;;;;1.10;0.38;;;;;;;21.28;49.78;101714.59;11434630;25;20021;-67
2024/04/12 11:47:48;;;;;;;1.15;0.30;;;;;;;20.70;50.62;101719.53;11468422;25;20043;-67
2024/04/12 11:52:54;;;;;;;0.30;0.15;;;;;;;20.39;51.54;101717.16;11460960;25;20020;-65
2024/04/12 11:57:58;;;;;;;1.02;0.30;;;;;;;20.53;51.78;101704.13;11416228;25;20001;-68
2024/04/12 12:03:01;;;;;;;1.27;0.40;;;;;;;20.81;51.03;101713.03;11403813;25;20042;-68
2024/04/12 12:08:05;;;;;;;1.65;0.40;;;;;;;20.79;51.25;101710.50;11438233;25;20015;-64
2024/04/12 12:13:10;;;;;;;1.42;0.40;;;;;;;20.79;50.78;101702.38;11394884;25;19997;-65
2024/04/12 12:18:15;;;;;;;3.63;0.30;;;;;;;21.25;50.33;101698.66;11348467;25;20009;-64
2024/04/12 12:23:18;;;;;;;1.25;0.50;;;;;;;21.30;49.38;101693.63;11374109;25;20012;-64
2024/04/12 12:28:20;;;;;;;1.58;0.38;;;;;;;21.12;49.39;101685.53;11411458;25;20020;-63
2024/04/12 12:33:23;;;;;;;0.85;0.38;;;;;;;21.47;48.97;101678.34;11398051;25;20016;-64
2024/04/12 12:38:25;;;;;;;0.52;0.20;;;;;;;21.43;49.26;101679.66;11345771;25;20057;-63
2024/04/12 12:43:28;;;;;;;0.43;0.22;;;;;;;21.62;48.96;101670.44;11433321;25;20070;-64
2024/04/12 12:48:29;;;;;;;0.90;0.13;;;;;;;21.83;48.73;101662.78;11348461;25;20008;-64
2024/04/12 12:53:33;;;;;;;0.85;0.30;;;;;;;22.17;47.21;101670.00;11439260;25;20009;-66
2024/04/12 12:58:40;;;;;;;1.58;0.20;;;;;;;22.79;46.11;101641.63;11434211;25;20970;-64
2024/04/12 13:03:43;;;;;;;1.10;0.30;;;;;;;23.00;46.11;101646.53;11439896;25;20054;-63
2024/04/12 13:08:46;;;;;;;1.20;0.20;;;;;;;22.80;46.57;101648.72;11426865;25;20020;-62
2024/04/12 13:13:48;;;;;;;0.80;0.37;;;;;;;22.56;46.38;101641.44;11443859;25;20004;-65
2024/04/12 13:18:52;;;;;;;0.75;0.15;;;;;;;22.78;46.48;101632.59;11411223;25;20477;-64
2024/04/12 13:23:56;;;;;;;0.43;0.10;;;;;;;22.99;45.37;101630.41;11390869;25;20939;-62
2024/04/12 13:28:58;;;;;;;0.85;0.20;;;;;;;22.88;45.61;101639.72;11421846;25;20031;-63
2024/04/12 13:34:08;;;;;;;0.63;0.38;;;;;;;22.69;45.93;101624.66;11377192;25;20011;-63
2024/04/12 13:39:24;;;;;;;0.98;0.30;;;;;;;22.20;46.86;101604.59;11402900;25;20009;-62
2024/04/12 13:50:46;;;;;;;1.45;0.30;;;;;;;22.27;47.86;101596.63;11410797;25;20101;-62
2024/04/12 13:55:10;;;;;;;0.98;0.43;;;;;;;22.00;47.52;101590.47;11391272;25;20461;-64
2024/04/12 14:00:27;;;;;;;0.88;0.32;;;;;;;21.74;48.17;101571.63;11423265;25;20019;-64
2024/04/12 14:05:34;;;;;;;3.40;0.45;;;;;;;21.67;49.19;101592.25;11418306;25;20130;-62
2024/04/12 14:10:37;;;;;;;2.33;0.60;;;;;;;21.62;49.19;101581.91;11402573;25;20004;-62
2024/04/12 14:15:38;;;;;;;0.90;0.20;;;;;;;21.62;49.34;101562.94;11398765;25;20030;-63
2024/04/12 14:20:40;;;;;;;0.60;0.52;;;;;;;21.80;49.29;101568.25;11417484;25;20016;-62
2024/04/12 14:25:41;;;;;;;0.75;0.65;;;;;;;21.62;48.89;101572.91;11417301;25;20013;-61
2024/04/12 14:30:44;;;;;;;1.17;0.30;;;;;;;21.51;50.21;101560.53;11428556;25;20004;-61
2024/04/12 14:35:45;;;;;;;0.70;0.25;;;;;;;21.57;50.02;101554.44;11431593;25;20120;-61
2024/04/12 14:40:51;;;;;;;0.82;0.60;;;;;;;21.63;49.42;101547.53;11419339;25;20012;-62
2024/04/12 14:45:53;;;;;;;1.33;0.50;;;;;;;21.75;50.21;101551.63;11392178;25;20009;-62
2024/04/12 14:50:57;;;;;;;1.13;0.50;;;;;;;21.73;49.91;101545.53;11428038;25;20092;-62
2024/04/12 14:55:59;;;;;;;0.70;0.30;;;;;;;21.69;49.60;101546.88;11425263;25;21067;-62
2024/04/12 15:01:00;;;;;;;2.45;0.40;;;;;;;21.37;50.56;101537.59;11429158;25;20015;-63
2024/04/12 15:48:49;;;;;;;1.48;0.70;;;;;;;20.94;51.22;101499.69;11432021;25;19996;-62
2024/04/12 15:53:52;;;;;;;1.08;0.32;;;;;;;20.98;51.79;101513.75;11384701;25;20012;-62
2024/04/12 16:15:02;;;;;;;0.98;0.40;;;;;;;21.04;52.65;101501.44;11455868;25;20016;-70
2024/04/12 16:20:06;;;;;;;1.33;0.55;;;;;;;21.00;53.27;101492.75;11451263;25;20012;-70
2024/04/12 16:25:08;;;;;;;1.45;0.52;;;;;;;21.08;52.70;101478.44;11440021;25;20005;-70
2024/04/12 16:30:11;;;;;;;1.38;0.63;;;;;;;21.17;52.19;101483.72;11355819;25;20226;-70
2024/04/12 16:35:13;;;;;;;;;;;;;;;21.01;51.33;101480.94;11334067;25;20012;-70
2024/04/12 16:40:15;;;;;;;2.00;0.57;;;;;;;20.91;51.56;101459.44;11422555;25;20657;-70
2024/04/12 16:45:19;;;;;;;1.23;0.53;;;;;;;20.90;52.28;101465.00;11414346;25;20046;-69
2024/04/12 16:50:27;;;;;;;;;;;;;;;20.83;52.63;101473.75;11369486;25;20017;-70
2024/04/12 16:55:32;;;;;;;1.35;0.50;;;;;;;20.67;53.15;101476.34;11377340;25;20010;-69
2024/04/12 17:00:38;;;;;;;1.00;0.75;;;;;;;20.61;54.18;101474.25;11349441;25;20040;-69
2024/04/12 17:05:41;;;;;;;1.00;0.55;;;;;;;20.59;53.88;101465.47;11429760;25;20967;-70
2024/04/12 17:10:43;;;;;;;2.70;0.73;;;;;;;20.61;53.99;101467.00;11359140;25;20001;-69
2024/04/12 17:15:46;;;;;;;1.75;0.77;;;;;;;20.52;53.52;101454.41;11383604;25;20019;-70
2024/04/12 17:20:54;;;;;;;1.55;0.40;;;;;;;20.47;53.62;101445.94;11371411;25;20172;-70
2024/04/12 17:25:56;;;;;;;0.90;0.55;;;;;;;20.51;53.81;101451.88;11384307;25;20004;-68
2024/04/12 17:30:59;;;;;;;;;;;;;;;20.40;54.11;101445.75;11441513;25;20001;-69
2024/04/12 17:36:05;;;;;;;1.15;0.65;;;;;;;20.29;54.19;101446.84;11402826;25;20409;-61
2024/04/12 17:41:07;;;;;;;2.40;0.55;;;;;;;20.21;54.58;101448.66;11421134;25;20004;-62
2024/04/12 17:46:09;;;;;;;3.22;0.90;;;;;;;20.23;55.09;101446.63;11406406;25;20032;-59
2024/04/12 17:51:10;;;;;;;1.83;0.95;;;;;;;20.12;54.91;101439.63;11444247;25;20077;-61
2024/04/12 17:56:13;;;;;;;1.17;0.80;;;;;;;20.07;55.19;101442.81;11438691;25;20116;-60
2024/04/12 18:01:15;;;;;;;3.03;1.00;;;;;;;20.08;55.73;101433.69;11436417;25;20038;-62
2024/04/12 18:06:16;;;;;;;1.40;0.80;;;;;;;20.06;56.04;101435.69;11438165;25;20324;-61
2024/04/12 18:11:18;;;;;;;1.48;0.93;;;;;;;19.95;55.66;101444.03;11436567;25;19996;-60
2024/04/12 18:16:20;;;;;;;1.85;0.82;;;;;;;19.72;56.17;101444.50;11411040;25;20005;-61
2024/04/12 18:21:22;;;;;;;1.73;1.42;;;;;;;19.61;56.82;101444.75;11439450;25;20160;-61
2024/04/12 18:26:24;;;;;;;3.22;1.30;;;;;;;19.64;57.73;101441.72;11426123;25;20017;-60
2024/04/12 18:31:25;;;;;;;2.67;1.38;;;;;;;19.63;57.74;101444.59;11431254;25;20434;-61
2024/04/12 18:36:34;;;;;;;2.72;1.15;;;;;;;19.62;58.31;101443.72;11403650;25;20013;-61
2024/04/12 18:47:07;;;;;;;5.57;2.23;;;;;;;19.48;58.47;101452.38;11444956;25;20015;-62
2024/04/12 18:52:12;;;;;;;2.55;2.17;;;;;;;19.38;59.29;101447.88;11418687;25;20012;-61
2024/04/12 18:57:14;;;;;;;2.85;1.95;;;;;;;19.31;59.28;101451.34;11384231;25;20379;-62
2024/04/12 19:02:18;;;;;;;2.40;1.77;;;;;;;19.24;59.68;101461.88;11436919;25;20026;-61
2024/04/12 19:07:20;;;;;;;3.72;1.90;;;;;;;19.17;59.70;101460.78;11436940;25;20004;-62
2024/04/12 19:12:22;;;;;;;2.97;2.20;;;;;;;19.08;59.76;101452.59;11437336;25;20017;-62
2024/04/12 19:17:24;;;;;;;4.75;1.80;;;;;;;19.04;60.00;101453.91;11440387;25;20005;-62
2024/04/12 19:22:29;;;;;;;2.35;1.20;;;;;;;18.97;60.22;101449.25;11433089;25;20012;-63
2024/04/12 19:27:33;;;;;;;4.47;2.53;;;;;;;18.90;60.42;101452.56;11405631;25;20528;-61
2024/04/12 19:32:35;;;;;;;2.40;1.60;;;;;;;18.87;59.71;101451.97;11405618;25;20039;-63
2024/04/12 19:37:37;;;;;;;2.63;1.97;;;;;;;18.78;60.57;101451.03;11423279;25;19997;-63
2024/04/12 19:42:40;;;;;;;3.03;2.05;;;;;;;18.73;60.55;101448.78;11366640;25;20001;-61
2024/04/12 19:47:41;;;;;;;2.60;2.03;;;;;;;18.60;60.96;101437.47;11403839;25;20056;-63
2024/04/12 19:52:44;;;;;;;4.07;2.55;;;;;;;18.61;60.85;101444.53;11432298;25;20447;-62
2024/04/12 19:57:58;;;;;;;4.60;3.05;;;;;;;18.55;61.34;101446.00;11423520;25;20434;-61
2024/04/12 20:03:00;;;;;;;3.70;2.45;;;;;;;18.54;61.42;101448.84;11404327;25;20023;-61
2024/04/12 20:08:02;;;;;;;3.30;2.45;;;;;;;18.47;61.41;101448.56;11433242;25;20050;-65
2024/04/12 20:13:04;;;;;;;5.72;3.25;;;;;;;18.41;61.71;101435.66;11439946;25;20005;-68
2024/04/12 20:18:06;;;;;;;3.83;2.47;;;;;;;18.40;62.20;101436.66;11440805;25;20012;-66
2024/04/12 20:23:08;;;;;;;3.72;3.08;;;;;;;18.32;62.40;101440.06;11430754;25;20012;-66
2024/04/12 20:28:11;;;;;;;4.28;3.78;;;;;;;18.24;62.64;101431.88;11436298;25;20019;-67
2024/04/12 20:33:22;;;;;;;4.28;3.88;;;;;;;18.19;62.57;101439.53;11450331;25;20013;-68
2024/04/12 20:38:24;;;;;;;5.28;4.25;;;;;;;18.15;63.56;101433.59;11372739;25;20713;-69
2024/04/12 20:43:25;;;;;;;6.93;4.55;;;;;;;18.04;63.21;101425.66;11399938;25;20015;-69
2024/04/12 20:48:27;;;;;;;7.68;5.55;;;;;;;18.08;63.75;101439.72;11435565;25;20656;-69
2024/04/12 20:53:30;;;;;;;8.40;5.55;;;;;;;18.01;63.80;101425.94;11425411;25;20011;-68
2024/04/12 20:58:32;;;;;;;8.43;6.20;;;;;;;17.94;64.00;101430.19;11384095;25;20008;-70
2024/04/12 21:03:33;;;;;;;9.93;7.03;;;;;;;17.89;64.14;101436.03;11423303;25;20334;-70
2024/04/12 21:08:35;;;;;;;7.93;6.53;;;;;;;17.87;64.79;101423.69;11405907;25;20451;-69
2024/04/12 21:13:37;;;;;;;6.22;5.63;;;;;;;17.83;64.98;101428.47;11437117;25;20015;-71
2024/04/12 21:18:39;;;;;;;8.65;5.63;;;;;;;17.77;64.83;101423.66;11409708;25;20035;-68
2024/04/12 21:23:41;;;;;;;7.13;5.90;;;;;;;17.74;64.93;101429.34;11405028;25;20426;-71
2024/04/12 21:28:42;;;;;;;6.90;5.55;;;;;;;17.70;65.35;101423.41;11411145;25;20001;-68
2024/04/12 21:33:44;;;;;;;6.32;4.53;;;;;;;17.62;65.71;101432.16;11404589;25;20067;-68
2024/04/12 21:38:46;;;;;;;6.20;4.20;;;;;;;17.61;66.36;101429.59;11395042;25;20234;-68
2024/04/12 21:43:49;;;;;;;6.88;4.93;;;;;;;17.53;66.36;101421.41;11392238;25;20008;-69
2024/04/12 21:48:53;;;;;;;5.95;4.20;;;;;;;17.50;66.56;101438.66;11428933;25;20028;-67
2024/04/12 21:53:56;;;;;;;4.75;4.25;;;;;;;17.45;66.78;101440.94;11429529;25;20001;-68
2024/04/12 21:58:58;;;;;;;6.70;5.97;;;;;;;17.39;67.04;101430.75;11428046;25;20094;-69
2024/04/12 22:04:01;;;;;;;5.47;4.80;;;;;;;17.27;66.85;101430.84;11436121;25;20065;-68
2024/04/12 22:09:08;;;;;;;4.97;4.22;;;;;;;17.33;67.09;101423.22;11430551;25;20077;-68
2024/04/12 22:14:09;;;;;;;7.10;5.20;;;;;;;17.31;67.70;101428.75;11428860;25;20787;-68
2024/04/12 22:19:13;;;;;;;7.05;4.85;;;;;;;17.28;67.65;101427.19;11396237;25;20047;-68
2024/04/12 22:24:14;;;;;;;9.63;5.83;;;;;;;17.24;68.21;101431.13;11415150;25;20009;-70
2024/04/12 22:29:16;;;;;;;7.45;5.93;;;;;;;17.18;68.45;101418.22;11437093;25;20336;-71
2024/04/12 22:34:20;;;;;;;6.47;5.00;;;;;;;17.14;68.28;101420.34;11394803;25;20074;-69
2024/04/12 22:39:21;;;;;;;9.65;5.85;;;;;;;17.03;69.61;101400.78;11392095;25;20559;-67
2024/04/12 22:44:23;;;;;;;8.48;7.05;;;;;;;17.04;68.96;101414.09;11437197;25;20767;-70
2024/04/12 22:49:25;;;;;;;9.45;7.13;;;;;;;16.99;69.03;101407.44;11389228;25;20012;-68
2024/04/12 22:54:27;;;;;;;6.72;5.93;;;;;;;16.89;69.25;101410.94;11424438;25;20016;-70
2024/04/12 22:59:28;;;;;;;11.02;6.47;;;;;;;16.92;69.58;101407.13;11375217;25;20028;-68
2024/04/12 23:04:31;;;;;;;6.13;5.53;;;;;;;16.90;69.69;101399.22;11428958;25;20015;-68
2024/04/12 23:09:33;;;;;;;7.47;5.57;;;;;;;16.85;69.82;101398.72;11443497;25;20024;-67
2024/04/12 23:14:34;;;;;;;6.93;5.47;;;;;;;16.80;70.07;101390.22;11368077;25;20062;-68
2024/04/12 23:19:36;;;;;;;5.82;4.72;;;;;;;16.82;69.73;101395.47;11436098;25;20021;-70
2024/04/12 23:24:37;;;;;;;7.38;5.35;;;;;;;16.75;70.34;101400.50;11434201;25;20019;-70
2024/04/12 23:29:39;;;;;;;5.57;4.35;;;;;;;16.75;70.08;101403.22;11438660;25;20005;-68
2024/04/12 23:34:44;;;;;;;4.55;3.47;;;;;;;16.71;69.83;101399.06;11432957;25;20015;-68
2024/04/12 23:39:46;;;;;;;5.25;4.20;;;;;;;16.68;70.27;101405.59;11438348;25;20016;-72
2024/04/12 23:44:47;;;;;;;3.80;3.45;;;;;;;16.67;70.30;101400.34;11358511;25;20033;-65
2024/04/12 23:49:49;;;;;;;4.28;3.78;;;;;;;16.63;70.21;101406.97;11398217;25;20016;-68
2024/04/12 23:54:53;;;;;;;5.05;3.22;;;;;;;16.57;70.52;101406.56;11421612;25;20111;-69
2024/04/12 23:59:54;;;;;;;3.22;2.90;;;;;;;16.55;70.88;101397.75;11425134;25;20006;-68
